Time;durP1;ratioP1;P1;durP2;ratioP2;P2;SDS_P1;SDS_P2;PMS_P1;PMS_P2;Temp;Humidity;BMP_temperature;BMP_pressure;BME280_temperature;BME280_humidity;BME280_pressure;Samples;Min_cycle;Max_cycle;Signal;HPM_P1;HPM_P2
2022/01/01 00:01:16;;;;;;;;;62.75;48.25;;;;;13.50;74.54;102135.25;5098690;27;45493;-69
2022/01/01 00:03:41;;;;;;;;;58.75;45.75;;;;;13.48;74.35;102134.53;5099920;27;45314;-69
2022/01/01 00:06:07;;;;;;;;;53.25;43.25;;;;;13.16;74.54;102075.75;5099814;27;45299;-70
2022/01/01 00:08:32;;;;;;;;;52.00;43.25;;;;;13.46;74.65;102129.34;5099499;27;45563;-70
2022/01/01 00:10:57;;;;;;;;;50.25;42.50;;;;;13.45;74.47;102126.78;5099423;27;45431;-69
2022/01/01 00:13:23;;;;;;;;;66.00;51.50;;;;;13.50;74.47;102129.91;5099589;27;45480;-70
2022/01/01 00:15:48;;;;;;;;;52.50;44.00;;;;;13.59;74.67;102143.34;5089164;27;46060;-70
2022/01/01 00:18:14;;;;;;;;;52.25;42.75;;;;;13.62;74.55;102142.25;5091645;27;45399;-70
2022/01/01 00:20:39;;;;;;;;;58.00;46.25;;;;;13.36;74.46;102089.16;5077770;28;45489;-69
2022/01/01 00:23:04;;;;;;;;;46.33;39.67;;;;;13.35;74.28;102086.63;5078835;28;45343;-70
2022/01/01 00:25:30;;;;;;;;;52.67;43.33;;;;;13.65;74.38;102142.84;5079212;28;45596;-69
2022/01/01 00:27:55;;;;;;;;;48.33;39.67;;;;;13.16;74.25;102046.41;5079070;27;46745;-69
2022/01/01 00:30:20;;;;;;;;;47.67;38.67;;;;;13.69;73.85;102136.25;5078648;28;45424;-69
2022/01/01 00:32:46;;;;;;;;;51.00;42.67;;;;;13.76;73.89;102141.06;5078466;27;45729;-70
2022/01/01 00:35:11;;;;;;;;;48.67;40.67;;;;;13.77;73.67;102129.38;5078814;28;45646;-69
2022/01/01 00:37:36;;;;;;;;;46.00;36.67;;;;;13.79;73.80;102130.09;5077167;28;46227;-69
2022/01/01 00:40:03;;;;;;;;;40.00;34.33;;;;;13.26;73.68;102047.34;5077107;28;45619;-74
2022/01/01 00:42:28;;;;;;;;;35.67;30.33;;;;;13.74;73.28;102124.31;5078910;28;45237;-73
2022/01/01 00:44:53;;;;;;;;;47.33;37.33;;;;;13.81;73.48;102128.16;5078772;28;45502;-69
2022/01/01 00:47:19;;;;;;;;;42.67;35.67;;;;;13.51;73.37;102083.53;5078524;28;46553;-70
2022/01/01 00:49:44;;;;;;;;;40.67;34.67;;;;;13.86;73.20;102136.66;5097421;27;45406;-72
2022/01/01 00:52:10;;;;;;;;;43.33;35.33;;;;;13.57;73.42;102085.66;5099207;27;45428;-69
2022/01/01 00:54:35;;;;;;;;;49.67;41.33;;;;;13.91;73.02;102145.97;5099136;27;45421;-69
2022/01/01 00:57:01;;;;;;;;;48.00;39.00;;;;;13.82;72.97;102124.53;5086803;27;47823;-71
2022/01/01 00:59:28;;;;;;;;;46.00;39.00;;;;;13.88;73.05;102126.66;5078291;27;45383;-74
2022/01/01 01:01:53;;;;;;;;;41.00;34.00;;;;;13.94;72.90;102144.84;5078382;27;45307;-69
2022/01/01 01:04:19;;;;;;;;;51.67;41.67;;;;;13.94;72.91;102140.34;5078312;27;45354;-69
2022/01/01 01:06:44;;;;;;;;;46.00;38.67;;;;;13.96;73.00;102133.03;5076703;28;46566;-71
2022/01/01 01:09:09;;;;;;;;;48.67;39.33;;;;;13.95;72.77;102130.50;5078175;27;45312;-70
2022/01/01 01:11:42;;;;;;;;;43.33;37.67;;;;;13.88;73.12;102129.34;5078335;27;45498;-70
2022/01/01 01:14:10;;;;;;;;;36.67;30.33;;;;;13.77;73.12;102129.38;5078327;27;45228;-69
2022/01/01 01:16:35;;;;;;;;;55.00;44.00;;;;;13.67;73.13;102132.00;5095827;27;46645;-70
2022/01/01 01:19:00;;;;;;;;;50.67;41.67;;;;;13.57;73.41;102141.78;5098460;27;45425;-70
2022/01/01 01:21:27;;;;;;;;;49.00;40.00;;;;;13.52;73.50;102136.81;5098649;27;45515;-70
2022/01/01 01:23:54;;;;;;;;;52.33;42.67;;;;;13.32;73.86;102116.28;5098791;27;45214;-70
2022/01/01 01:26:19;;;;;;;;;45.67;39.00;;;;;13.34;73.92;102119.66;5098129;27;46166;-70
2022/01/01 01:28:50;;;;;;;;;46.33;40.00;;;;;13.37;73.96;102130.09;5097924;27;45249;-69
2022/01/01 01:31:20;;;;;;;;;44.67;35.67;;;;;13.13;73.93;102105.41;5098108;27;45479;-69
2022/01/01 01:33:45;;;;;;;;;49.33;40.00;;;;;13.30;74.16;102131.59;5098160;27;45478;-71
2022/01/01 01:36:12;;;;;;;;;46.00;38.67;;;;;13.10;74.31;102090.47;5097983;27;45910;-71
2022/01/01 01:38:37;;;;;;;;;50.33;40.00;;;;;13.14;74.42;102096.41;5098098;27;45310;-70
2022/01/01 01:41:04;;;;;;;;;45.67;38.00;;;;;13.19;74.46;102099.56;5098251;27;45355;-69
2022/01/01 01:43:32;;;;;;;;;49.33;39.33;;;;;13.29;74.55;102111.19;5098597;27;45408;-70
2022/01/01 01:46:02;;;;;;;;;52.33;43.67;;;;;13.20;74.60;102109.28;5097920;27;45303;-69
2022/01/01 01:48:28;;;;;;;;;44.33;36.00;;;;;13.30;74.16;102123.56;5105382;27;45420;-70
2022/01/01 01:50:56;;;;;;;;;41.67;36.00;;;;;13.25;74.42;102109.75;5100246;27;45323;-70
2022/01/01 01:53:21;;;;;;;;;43.00;35.33;;;;;13.23;74.34;102109.91;5119012;27;45565;-70
2022/01/01 01:55:47;;;;;;;;;48.33;38.00;;;;;13.29;74.17;102116.53;5099929;27;47695;-69
2022/01/01 01:58:12;;;;;;;;;39.67;35.00;;;;;13.40;74.00;102124.47;5118214;27;45399;-70
2022/01/01 02:01:11;;;;;;;;;42.00;35.00;;;;;13.37;74.41;102122.06;5118535;27;45619;-70
2022/01/01 02:03:32;;;;;;;;;34.67;31.67;;;;;13.34;74.26;102125.00;5118314;27;45222;-70
2022/01/01 02:05:59;;;;;;;;;42.00;33.67;;;;;13.31;74.27;102127.94;5118332;27;45540;-69
2022/01/01 02:08:25;;;;;;;;;38.67;34.00;;;;;13.26;74.50;102128.34;5118453;27;45232;-70
2022/01/01 02:10:52;;;;;;;;;46.33;37.67;;;;;13.09;74.32;102104.81;5118378;27;45220;-70
2022/01/01 02:13:26;;;;;;;;;42.67;35.00;;;;;13.24;74.87;102124.09;5118584;27;45512;-70
2022/01/01 02:18:17;;;;;;;;;39.33;34.00;;;;;13.09;74.57;102097.66;5109045;27;45338;-70
2022/01/01 02:20:49;;;;;;;;;46.67;36.33;;;;;13.15;74.43;102106.13;5097742;27;45219;-71
2022/01/01 02:23:16;;;;;;;;;45.33;38.00;;;;;12.25;74.73;101964.16;5097450;27;45398;-70
2022/01/01 02:25:42;;;;;;;;;48.00;41.00;;;;;13.07;74.60;102112.94;5112970;27;46700;-70
2022/01/01 02:28:11;;;;;;;;;47.00;37.00;;;;;13.16;74.70;102115.81;5118040;27;45426;-70
2022/01/01 02:30:36;;;;;;;;;49.33;40.00;;;;;13.08;74.46;102114.66;5118401;27;45415;-69
2022/01/01 02:33:01;;;;;;;;;47.33;39.33;;;;;13.01;75.30;102109.91;5118306;27;45569;-70
2022/01/01 02:35:27;;;;;;;;;47.00;39.00;;;;;12.95;74.84;102113.94;5117890;27;45349;-70
2022/01/01 02:37:52;;;;;;;;;51.50;41.50;;;;;12.92;74.94;102114.19;5117786;27;45259;-70
2022/01/01 02:40:18;;;;;;;;;54.00;44.00;;;;;12.89;75.00;102108.28;5099470;27;45445;-70
2022/01/01 02:42:43;;;;;;;;;47.50;38.75;;;;;12.84;75.45;102106.00;5118322;27;45356;-70
2022/01/01 02:45:11;;;;;;;;;50.67;41.67;;;;;12.85;75.58;102102.34;5117518;27;46841;-70
2022/01/01 02:47:38;;;;;;;;;49.00;40.33;;;;;12.80;75.35;102097.34;5117515;27;45369;-70
2022/01/01 02:50:04;;;;;;;;;50.00;41.00;;;;;12.73;75.66;102085.50;5097349;27;45598;-70
2022/01/01 02:52:29;;;;;;;;;48.00;39.67;;;;;12.76;75.12;102082.56;5097419;27;45421;-70
2022/01/01 02:54:55;;;;;;;;;48.33;40.00;;;;;12.82;75.17;102097.25;5096893;27;46526;-69
2022/01/01 02:57:20;;;;;;;;;48.33;39.67;;;;;12.48;75.58;102041.31;5097356;27;45418;-69
2022/01/01 02:59:46;;;;;;;;;47.00;37.00;;;;;12.85;75.35;102105.00;5097159;27;45305;-70
2022/01/01 03:02:11;;;;;;;;;65.75;51.50;;;;;12.84;74.95;102095.31;5097298;27;45688;-71
2022/01/01 03:04:37;;;;;;;;;41.33;35.67;;;;;12.69;74.83;102075.22;5096809;27;46650;-69
2022/01/01 03:07:02;;;;;;;;;47.00;39.00;;;;;12.77;75.05;102086.09;5078817;27;45313;-70
2022/01/01 03:09:34;;;;;;;;;52.00;40.67;;;;;12.86;75.14;102101.38;5097171;27;45226;-70
2022/01/01 03:12:02;;;;;;;;;43.33;36.67;;;;;12.88;74.99;102114.59;5097246;27;45324;-70
2022/01/01 03:14:27;;;;;;;;;48.33;39.33;;;;;12.84;75.44;102107.81;5096843;27;46730;-70
2022/01/01 03:16:52;;;;;;;;;46.33;36.33;;;;;12.85;75.47;102113.03;5096722;27;45398;-70
2022/01/01 03:19:18;;;;;;;;;44.00;36.00;;;;;12.87;75.34;102112.91;5096590;27;45798;-69
2022/01/01 03:21:43;;;;;;;;;45.33;38.00;;;;;12.25;75.16;102013.00;5078993;27;45354;-70
2022/01/01 03:24:09;;;;;;;;;44.67;38.00;;;;;12.86;75.19;102109.38;5078409;27;48562;-70
2022/01/01 03:26:34;;;;;;;;;48.00;40.00;;;;;12.85;75.09;102113.03;5096994;27;45472;-72
2022/01/01 03:29:00;;;;;;;;;46.67;37.67;;;;;12.85;75.10;102113.03;5097024;27;45670;-70
2022/01/01 03:31:26;;;;;;;;;47.33;38.33;;;;;12.82;74.92;102113.28;5095579;27;45692;-70
2022/01/01 03:33:52;;;;;;;;;46.33;38.67;;;;;12.83;75.30;102109.63;5117028;27;45876;-70
2022/01/01 03:36:18;;;;;;;;;46.67;39.33;;;;;12.89;75.04;102119.81;5100129;27;45352;-70
2022/01/01 03:38:43;;;;;;;;;49.67;38.67;;;;;12.89;74.88;102113.63;5120877;27;45540;-71
2022/01/01 03:41:09;;;;;;;;;48.25;39.00;;;;;12.78;75.09;102101.13;5120914;27;45315;-69
2022/01/01 03:43:34;;;;;;;;;41.33;35.00;;;;;12.82;74.82;102110.59;5101800;27;45632;-68
2022/01/01 03:45:59;;;;;;;;;44.00;37.00;;;;;12.76;75.61;102100.41;5120566;27;45326;-70
2022/01/01 03:48:25;;;;;;;;;38.00;33.33;;;;;12.78;74.92;102103.81;5111526;27;45279;-69
2022/01/01 03:50:50;;;;;;;;;43.33;35.67;;;;;12.76;75.45;102092.41;5102261;27;45618;-70
2022/01/01 03:53:16;;;;;;;;;44.00;36.00;;;;;12.72;75.24;102096.31;5120476;27;46378;-70
2022/01/01 03:55:42;;;;;;;;;45.33;35.00;;;;;12.72;75.11;102097.16;5120623;27;45672;-69
2022/01/01 03:58:07;;;;;;;;;45.67;36.33;;;;;12.69;75.00;102102.75;5120570;27;45386;-70
2022/01/01 04:00:33;;;;;;;;;42.67;34.33;;;;;12.28;75.07;102036.72;5101949;27;45612;-70
2022/01/01 04:03:09;;;;;;;;;38.67;32.67;;;;;12.59;75.13;102095.59;5120328;27;46139;-71
2022/01/01 04:05:36;;;;;;;;;37.00;32.33;;;;;12.69;75.15;102107.22;5120402;27;45481;-70
2022/01/01 04:08:04;;;;;;;;;40.67;35.33;;;;;12.73;75.03;102103.34;5120094;27;45595;-70
2022/01/01 04:10:31;;;;;;;;;38.33;35.00;;;;;12.48;74.91;102067.97;5120314;27;45290;-69
2022/01/01 04:13:00;;;;;;;;;33.33;29.33;;;;;12.71;74.92;102107.94;5120183;27;45733;-69
2022/01/01 04:15:29;;;;;;;;;39.67;33.00;;;;;12.69;74.74;102088.56;5119840;27;45496;-69
2022/01/01 04:18:00;;;;;;;;;39.33;33.00;;;;;12.78;74.73;102095.78;5116471;27;45501;-70
2022/01/01 04:20:27;;;;;;;;;43.00;34.33;;;;;12.72;74.99;102096.31;5099834;27;45436;-70
2022/01/01 04:22:55;;;;;;;;;46.00;36.67;;;;;12.64;74.78;102090.75;5099108;27;46561;-70
2022/01/01 04:25:21;;;;;;;;;39.00;34.00;;;;;12.69;74.57;102102.75;5080993;27;45828;-69
2022/01/01 04:27:47;;;;;;;;;39.00;33.00;;;;;12.64;74.77;102098.75;5099419;27;45324;-69
2022/01/01 04:30:13;;;;;;;;;35.00;32.00;;;;;12.61;74.24;102093.66;5099281;27;45684;-69
2022/01/01 04:32:38;;;;;;;;;39.67;33.67;;;;;12.60;74.44;102087.47;5080748;27;46861;-69
2022/01/01 04:35:04;;;;;;;;;38.00;31.00;;;;;12.56;75.13;102091.34;5099306;27;45276;-70
2022/01/01 04:37:30;;;;;;;;;41.00;32.67;;;;;12.56;74.28;102098.50;5099159;27;45505;-70
2022/01/01 04:39:59;;;;;;;;;33.00;29.00;;;;;12.40;74.96;102091.75;5099234;27;45158;-70
2022/01/01 04:42:27;;;;;;;;;39.33;34.67;;;;;12.19;75.60;102086.28;5099112;27;46262;-70
2022/01/01 04:44:53;;;;;;;;;41.00;34.00;;;;;12.27;75.56;102095.53;5098915;27;45228;-71
2022/01/01 04:47:19;;;;;;;;;39.00;32.00;;;;;12.22;75.82;102101.22;5098620;27;45411;-70
2022/01/01 04:49:44;;;;;;;;;28.33;28.33;;;;;11.99;76.29;102059.53;5117542;27;45177;-69
2022/01/01 04:52:10;;;;;;;;;41.33;34.00;;;;;12.21;75.57;102096.84;5119385;27;47729;-70
2022/01/01 04:54:39;;;;;;;;;33.00;30.67;;;;;11.74;75.36;102018.78;5119454;27;45498;-69
2022/01/01 04:57:05;;;;;;;;;38.67;33.00;;;;;12.24;75.56;102096.63;5119603;27;45485;-70
2022/01/01 04:59:31;;;;;;;;;35.67;31.33;;;;;12.13;75.75;102072.63;5119735;27;45379;-69
2022/01/01 05:01:56;;;;;;;;;35.00;31.67;;;;;12.14;75.25;102064.50;5119146;27;47477;-69
2022/01/01 05:04:21;;;;;;;;;36.67;32.67;;;;;12.20;75.46;102095.16;5119855;27;45252;-70
2022/01/01 05:06:49;;;;;;;;;39.67;32.67;;;;;12.19;75.56;102088.97;5101084;27;45306;-71
2022/01/01 05:09:18;;;;;;;;;35.67;32.00;;;;;12.07;75.32;102089.09;5119431;27;45468;-70
2022/01/01 05:11:44;;;;;;;;;32.00;29.00;;;;;12.04;75.49;102089.34;5119112;27;46021;-70
2022/01/01 05:14:10;;;;;;;;;35.00;32.67;;;;;11.95;75.94;102079.41;5119188;27;45495;-70
2022/01/01 05:16:36;;;;;;;;;44.00;33.33;;;;;11.95;75.90;102082.06;5100635;27;45417;-70
2022/01/01 05:19:01;;;;;;;;;38.67;32.00;;;;;11.96;75.62;102081.09;5103838;27;45338;-68
2022/01/01 05:21:32;;;;;;;;;42.33;31.67;;;;;11.99;75.25;102083.50;5098546;27;46572;-70
2022/01/01 05:23:59;;;;;;;;;37.67;32.67;;;;;12.11;76.00;102102.06;5098515;27;45694;-70
2022/01/01 05:26:24;;;;;;;;;33.00;30.67;;;;;12.14;75.43;102100.97;5098734;27;45376;-70
2022/01/01 05:28:50;;;;;;;;;40.33;34.33;;;;;12.16;75.22;102099.03;5080216;27;45467;-70
2022/01/01 05:31:17;;;;;;;;;38.00;32.33;;;;;12.09;75.43;102088.00;5096906;27;48551;-70
2022/01/01 05:33:42;;;;;;;;;46.00;37.00;;;;;11.97;75.08;102077.44;5098590;27;45473;-71
2022/01/01 05:36:08;;;;;;;;;36.00;32.00;;;;;12.06;75.25;102088.25;5098560;27;45546;-71
2022/01/01 05:38:33;;;;;;;;;37.33;31.00;;;;;11.93;75.29;102086.66;5098558;27;45287;-69
2022/01/01 05:40:59;;;;;;;;;33.00;30.00;;;;;12.00;75.43;102090.53;5098306;27;46845;-69
2022/01/01 05:43:24;;;;;;;;;37.00;32.33;;;;;11.98;75.38;102095.13;5098192;27;45348;-69
2022/01/01 05:45:50;;;;;;;;;33.00;29.33;;;;;11.66;75.76;102053.19;5098519;27;45299;-71
2022/01/01 05:48:15;;;;;;;;;30.00;29.33;;;;;11.80;75.65;102070.78;5098382;27;45295;-70
2022/01/01 05:50:40;;;;;;;;;21.00;16.67;;;;;11.78;75.85;102060.22;5098224;27;47326;-69
2022/01/01 05:53:06;;;;;;;;;30.67;27.67;;;;;11.76;75.55;102075.47;5116917;27;45406;-70
2022/01/01 05:55:31;;;;;;;;;31.67;28.33;;;;;11.78;75.87;102078.00;5118697;27;45454;-70
2022/01/01 05:57:57;;;;;;;;;27.33;24.33;;;;;11.75;76.02;102075.59;5118271;27;45390;-70
2022/01/01 06:00:22;;;;;;;;;28.00;27.00;;;;;11.78;75.45;102062.91;5118035;27;45496;-70
2022/01/01 06:02:48;;;;;;;;;21.00;20.00;;;;;11.81;75.25;102078.69;5118740;27;45291;-70
2022/01/01 06:05:13;;;;;;;;;21.33;21.00;;;;;11.84;75.82;102082.91;5118788;27;45366;-69
2022/01/01 06:07:38;;;;;;;;;25.67;25.67;;;;;11.85;75.47;102082.78;5118477;27;45452;-69
2022/01/01 06:10:04;;;;;;;;;25.67;24.67;;;;;11.86;75.48;102068.50;5118336;27;45808;-70
2022/01/01 06:12:30;;;;;;;;;25.33;24.67;;;;;11.90;75.12;102079.75;5118338;27;45381;-70
2022/01/01 06:14:55;;;;;;;;;29.00;25.00;;;;;11.87;75.14;102062.19;5118148;27;45385;-71
2022/01/01 06:17:20;;;;;;;;;24.33;21.33;;;;;11.50;74.73;101994.94;5115836;27;45570;-70
2022/01/01 06:19:47;;;;;;;;;20.67;17.00;;;;;11.59;75.12;102012.00;5097508;27;46977;-71
2022/01/01 06:22:13;;;;;;;;;24.00;22.00;;;;;11.98;74.85;102084.47;5097751;27;45407;-71
2022/01/01 06:24:39;;;;;;;;;24.33;22.67;;;;;11.97;74.24;102085.44;5097707;27;45341;-70
2022/01/01 06:27:05;;;;;;;;;22.67;22.00;;;;;11.97;74.39;102085.44;5097774;27;45278;-69
2022/01/01 06:29:30;;;;;;;;;25.67;23.33;;;;;11.73;74.91;102049.06;5097668;27;46618;-70
2022/01/01 06:31:55;;;;;;;;;22.67;22.67;;;;;11.86;74.83;102071.16;5079286;27;45372;-70
2022/01/01 06:34:26;;;;;;;;;22.00;21.33;;;;;11.91;74.21;102077.94;5097726;27;45409;-69
2022/01/01 06:36:52;;;;;;;;;20.67;19.33;;;;;11.80;74.09;102076.09;5097796;27;45415;-70
2022/01/01 06:39:18;;;;;;;;;19.33;19.33;;;;;11.55;74.32;102045.16;5097236;27;46933;-70
2022/01/01 06:41:43;;;;;;;;;23.67;22.00;;;;;11.58;74.36;102047.59;5097711;27;45229;-69
2022/01/01 06:44:09;;;;;;;;;22.33;20.00;;;;;11.71;74.38;102082.13;5097485;27;45492;-70
2022/01/01 06:46:34;;;;;;;;;22.67;22.67;;;;;11.69;74.61;102076.91;5097804;27;45217;-69
2022/01/01 06:49:00;;;;;;;;;20.00;18.00;;;;;11.27;74.50;101999.38;5113932;27;46058;-70
2022/01/01 06:51:25;;;;;;;;;25.33;22.33;;;;;11.64;75.21;102065.78;5117974;27;45465;-71
2022/01/01 06:53:51;;;;;;;;;26.33;23.33;;;;;11.62;75.36;102067.72;5118172;27;45746;-70
2022/01/01 06:56:16;;;;;;;;;25.00;22.67;;;;;11.57;75.80;102077.84;5118305;27;45505;-70
2022/01/01 06:58:41;;;;;;;;;26.33;22.33;;;;;11.23;75.64;102021.03;5099409;27;46860;-71
2022/01/01 07:01:07;;;;;;;;;26.67;23.67;;;;;11.49;75.67;102072.28;5117975;27;45263;-70
2022/01/01 07:03:32;;;;;;;;;24.33;23.67;;;;;11.38;75.88;102053.59;5117789;27;45442;-70
2022/01/01 07:05:58;;;;;;;;;22.33;20.67;;;;;11.31;75.97;102047.06;5118193;27;45620;-70
2022/01/01 07:08:23;;;;;;;;;23.67;22.67;;;;;11.36;75.81;102061.69;5117643;27;46868;-69
2022/01/01 07:10:49;;;;;;;;;26.00;21.33;;;;;11.42;76.38;102060.41;5120118;27;45433;-69
2022/01/01 07:13:15;;;;;;;;;27.00;26.00;;;;;11.44;75.80;102063.81;5121717;27;45245;-69
2022/01/01 07:15:41;;;;;;;;;27.67;25.67;;;;;11.50;76.16;102069.50;5121556;27;45467;-71
2022/01/01 07:18:06;;;;;;;;;26.67;25.67;;;;;11.02;75.61;101988.91;5119384;27;45579;-70
2022/01/01 07:20:31;;;;;;;;;26.00;23.67;;;;;11.34;75.74;102039.69;5121058;27;45315;-70
2022/01/01 07:22:57;;;;;;;;;29.33;24.00;;;;;11.59;75.25;102049.28;5121202;27;45449;-69
2022/01/01 07:25:22;;;;;;;;;24.67;20.00;;;;;11.58;75.43;102044.91;5121287;27;45489;-68
2022/01/01 07:27:48;;;;;;;;;21.67;21.00;;;;;11.70;74.36;102072.44;5121096;27;46609;-70
2022/01/01 07:30:13;;;;;;;;;25.00;24.33;;;;;11.67;74.73;102068.19;5121085;27;45499;-70
2022/01/01 07:32:40;;;;;;;;;25.00;23.67;;;;;11.50;75.19;102058.84;5121183;27;45810;-69
2022/01/01 07:35:06;;;;;;;;;17.67;17.67;;;;;11.55;75.09;102072.66;5120536;27;45428;-70
2022/01/01 07:37:35;;;;;;;;;25.33;20.67;;;;;11.04;75.03;101980.81;5119797;27;47677;-70
2022/01/01 07:40:00;;;;;;;;;22.67;20.00;;;;;11.20;74.67;102014.09;5102186;27;45449;-70
2022/01/01 07:42:26;;;;;;;;;26.67;26.00;;;;;11.48;74.45;102059.94;5120740;27;45515;-71
2022/01/01 07:44:51;;;;;;;;;26.67;22.00;;;;;11.38;75.11;102048.28;5121299;27;45359;-69
2022/01/01 07:47:19;;;;;;;;;20.67;19.33;;;;;11.46;74.78;102062.72;5116569;27;46601;-69
2022/01/01 07:49:44;;;;;;;;;22.00;19.00;;;;;11.58;74.60;102076.88;5100194;27;45475;-70
2022/01/01 07:52:11;;;;;;;;;23.00;21.67;;;;;11.45;74.22;102057.50;5099907;27;45781;-69
2022/01/01 07:54:36;;;;;;;;;19.00;19.00;;;;;11.51;74.26;102070.34;5100465;27;45272;-70
2022/01/01 07:57:02;;;;;;;;;22.33;20.00;;;;;11.37;74.71;102043.91;5099948;27;45568;-70
2022/01/01 07:59:27;;;;;;;;;20.33;19.00;;;;;11.40;74.48;102071.16;5099837;27;45236;-69
2022/01/01 08:01:52;;;;;;;;;22.67;20.33;;;;;11.28;74.83;102054.31;5100046;27;45468;-69
2022/01/01 08:04:18;;;;;;;;;25.33;18.67;;;;;11.44;74.93;102079.78;5100100;27;45559;-70
2022/01/01 08:06:43;;;;;;;;;19.33;15.00;;;;;11.44;74.79;102079.78;5099651;27;48303;-70
2022/01/01 08:09:09;;;;;;;;;23.00;19.67;;;;;11.20;74.27;102047.84;5099699;27;45441;-70
2022/01/01 08:11:34;;;;;;;;;18.67;15.33;;;;;11.44;73.94;102085.09;5081605;27;45305;-70
2022/01/01 08:13:59;;;;;;;;;18.00;16.33;;;;;11.37;74.31;102074.03;5100071;27;45482;-71
2022/01/01 08:16:27;;;;;;;;;16.67;14.67;;;;;11.41;74.68;102080.88;5099132;27;46701;-70
2022/01/01 08:18:53;;;;;;;;;15.00;14.67;;;;;11.32;74.12;102064.72;5081013;27;45548;-70
2022/01/01 08:21:18;;;;;;;;;22.67;19.67;;;;;11.49;74.14;102074.94;5099012;27;45510;-70
2022/01/01 08:23:43;;;;;;;;;18.33;16.33;;;;;11.59;73.92;102075.91;5099633;27;45252;-70
2022/01/01 08:26:09;;;;;;;;;18.00;16.33;;;;;11.52;73.57;102045.41;5080973;27;48281;-70
2022/01/01 08:28:34;;;;;;;;;20.00;16.33;;;;;11.49;73.61;102062.47;5099332;27;45269;-69
2022/01/01 08:31:00;;;;;;;;;17.67;17.00;;;;;11.17;73.96;102005.50;5081116;27;45361;-70
2022/01/01 08:33:26;;;;;;;;;18.33;17.00;;;;;11.47;73.95;102058.22;5081136;27;45528;-70
2022/01/01 08:35:51;;;;;;;;;23.00;18.67;;;;;11.49;74.20;102053.63;5099409;27;46480;-70
2022/01/01 08:38:17;;;;;;;;;18.00;17.00;;;;;11.65;73.78;102069.28;5099338;27;45296;-71
2022/01/01 08:40:43;;;;;;;;;22.00;17.00;;;;;11.69;73.88;102065.41;5099366;27;45480;-70
2022/01/01 08:43:08;;;;;;;;;21.67;18.00;;;;;11.69;73.11;102052.94;5098385;27;45295;-69
2022/01/01 08:45:36;;;;;;;;;21.33;19.33;;;;;11.81;73.13;102065.34;5098986;27;45471;-72
2022/01/01 08:48:04;;;;;;;;;19.00;18.00;;;;;11.83;72.79;102060.75;5081111;27;45315;-71
2022/01/01 08:50:30;;;;;;;;;18.67;17.33;;;;;11.93;72.68;102062.69;5099202;27;45449;-71
2022/01/01 08:52:57;;;;;;;;;22.33;20.00;;;;;12.03;72.45;102067.19;5099262;27;45310;-70
2022/01/01 08:55:23;;;;;;;;;16.33;16.00;;;;;12.09;72.54;102065.84;5099043;27;46832;-69
2022/01/01 08:57:54;;;;;;;;;16.67;16.00;;;;;12.08;71.75;102064.13;5098663;27;45430;-71
2022/01/01 09:00:21;;;;;;;;;16.33;15.33;;;;;12.11;72.20;102048.75;5080796;27;45490;-70
2022/01/01 09:02:46;;;;;;;;;18.33;16.33;;;;;12.13;71.56;102045.97;5099239;27;45233;-70
2022/01/01 09:05:12;;;;;;;;;18.00;17.00;;;;;11.91;71.26;102003.31;5080279;27;46910;-72
2022/01/01 09:07:38;;;;;;;;;16.00;16.00;;;;;12.30;71.32;102064.13;5099004;27;45489;-70
2022/01/01 09:10:04;;;;;;;;;20.00;18.00;;;;;12.42;71.39;102068.47;5099424;27;45268;-69
2022/01/01 09:12:30;;;;;;;;;17.67;17.00;;;;;12.50;70.84;102067.84;5080446;27;45704;-70
2022/01/01 09:14:56;;;;;;;;;13.00;13.00;;;;;12.57;70.22;102066.38;5098385;27;46235;-70
2022/01/01 09:17:22;;;;;;;;;18.00;18.00;;;;;12.59;70.24;102055.56;5098615;27;45309;-71
2022/01/01 09:19:48;;;;;;;;;19.67;17.00;;;;;12.41;70.31;102008.13;5113601;27;45435;-72
2022/01/01 09:22:14;;;;;;;;;17.33;16.00;;;;;12.59;70.34;102034.22;5119412;27;45378;-70
2022/01/01 09:24:39;;;;;;;;;16.33;16.33;;;;;12.77;69.75;102049.59;5118855;27;47202;-70
2022/01/01 09:27:05;;;;;;;;;15.00;14.33;;;;;12.85;69.17;102032.09;5119174;27;45444;-69
2022/01/01 09:29:30;;;;;;;;;15.67;15.67;;;;;12.76;69.24;102012.34;5083329;27;45169;-70
2022/01/01 09:31:57;;;;;;;;;10.33;10.33;;;;;12.79;69.16;102014.75;5118940;27;45493;-71
2022/01/01 09:34:22;;;;;;;;;22.33;20.00;;;;;12.83;69.14;102023.38;5099077;27;48176;-70
2022/01/01 09:36:49;;;;;;;;;18.00;16.33;;;;;12.78;68.83;102000.56;5118992;27;45560;-71
2022/01/01 09:39:16;;;;;;;;;18.00;16.00;;;;;12.46;69.08;101946.38;5100781;27;45422;-70
2022/01/01 09:41:42;;;;;;;;;19.00;17.67;;;;;12.88;68.87;102005.16;5119069;27;45288;-71
2022/01/01 09:44:13;;;;;;;;;17.00;16.00;;;;;12.78;68.65;102011.25;5118419;27;46567;-70
2022/01/01 09:46:44;;;;;;;;;10.00;8.00;;;;;12.76;68.94;102017.69;5118689;27;45536;-70
2022/01/01 09:49:12;;;;;;;;;17.33;17.00;;;;;12.64;68.92;102000.03;5117071;27;45531;-71
2022/01/01 09:51:39;;;;;;;;;19.00;17.33;;;;;12.64;69.33;102008.88;5098353;27;45392;-71
2022/01/01 09:54:04;;;;;;;;;15.67;14.33;;;;;12.60;69.35;102009.25;5097788;27;46607;-70
2022/01/01 09:56:30;;;;;;;;;15.33;15.33;;;;;12.55;69.31;102006.13;5098022;27;46180;-71
2022/01/01 09:58:55;;;;;;;;;17.33;16.67;;;;;12.13;69.65;101942.84;5079847;27;45434;-71
2022/01/01 10:01:21;;;;;;;;;17.33;16.00;;;;;12.62;69.40;102018.00;5097963;27;45372;-69
2022/01/01 10:03:49;;;;;;;;;25.00;19.00;;;;;12.57;69.61;102005.00;5097768;27;46276;-69
2022/01/01 10:06:17;;;;;;;;;20.00;18.00;;;;;12.55;69.82;101987.44;5097862;27;45223;-69
2022/01/01 10:08:48;;;;;;;;;17.00;15.67;;;;;12.32;70.13;101950.19;5097775;27;45489;-72
2022/01/01 10:11:18;;;;;;;;;19.00;17.33;;;;;12.67;69.20;102002.44;5098112;27;45198;-70
2022/01/01 10:13:44;;;;;;;;;17.67;16.33;;;;;12.67;69.12;102002.44;5097475;27;46335;-70
2022/01/01 10:16:12;;;;;;;;;16.67;15.67;;;;;12.68;69.66;102006.81;5097319;27;45338;-70
2022/01/01 10:18:43;;;;;;;;;21.67;19.00;;;;;12.74;69.34;102012.47;5097426;27;45497;-69
2022/01/01 10:21:12;;;;;;;;;25.33;23.33;;;;;12.76;69.73;102012.34;5097741;27;45321;-70
2022/01/01 10:23:40;;;;;;;;;17.00;15.00;;;;;12.66;69.40;101982.09;5097388;27;45717;-69
2022/01/01 10:29:10;;;;;;;;;19.67;19.00;;;;;12.80;69.48;101997.78;5097619;27;45297;-69
2022/01/01 10:31:38;;;;;;;;;14.67;13.67;;;;;12.72;69.36;101994.91;5079136;27;46745;-69
2022/01/01 10:34:25;;;;;;;;;14.67;14.67;;;;;12.77;69.36;102004.22;5097314;27;46642;-68
2022/01/01 10:36:52;;;;;;;;;16.33;16.33;;;;;12.44;69.02;101943.84;5078951;27;45502;-69
2022/01/01 10:39:18;;;;;;;;;12.67;12.67;;;;;12.82;68.77;102011.00;5097411;27;45500;-70
2022/01/01 10:41:46;;;;;;;;;13.00;11.00;;;;;12.88;69.42;102015.84;5097435;27;45243;-70
2022/01/01 10:44:15;;;;;;;;;12.33;12.33;;;;;12.93;69.26;102010.94;5097017;27;46379;-69
2022/01/01 10:46:41;;;;;;;;;16.67;12.67;;;;;12.91;68.66;101995.06;5100732;27;45398;-69
2022/01/01 10:49:34;;;;;;;;;17.67;14.67;;;;;12.88;68.64;101984.66;5101131;27;45383;-69
2022/01/01 10:52:21;;;;;;;;;14.67;14.33;;;;;12.97;68.82;102005.22;5101296;27;45291;-69
2022/01/01 10:54:52;;;;;;;;;16.67;15.67;;;;;13.00;68.75;102010.28;5100349;27;46940;-70
2022/01/01 10:57:41;;;;;;;;;16.33;15.33;;;;;12.86;68.26;101977.75;5100830;27;45420;-71
2022/01/01 11:00:18;;;;;;;;;12.00;12.00;;;;;13.03;68.41;102010.06;5100368;27;45302;-70
2022/01/01 11:02:54;;;;;;;;;16.00;15.33;;;;;13.08;68.52;102017.69;5101020;27;45527;-69
2022/01/01 11:05:34;;;;;;;;;12.67;12.67;;;;;13.10;69.00;102005.03;5100630;27;45597;-69
2022/01/01 11:08:02;;;;;;;;;18.67;16.00;;;;;13.09;68.41;102009.53;5100970;27;45252;-69
2022/01/01 11:10:28;;;;;;;;;15.67;14.00;;;;;13.13;68.26;102003.94;5082186;27;45479;-71
2022/01/01 11:12:56;;;;;;;;;17.00;15.00;;;;;13.19;68.02;102006.09;5100676;27;45260;-70